sensor_id;sensor_type;location;lat;lon;timestamp;pressure;altitude;pressure_sealevel;temperature;humidity
73516;BME280;61763;51.416;5.442;2022-09-09T00:00:53;100704.69;;;12.44;100.00
73516;BME280;61763;51.416;5.442;2022-09-09T00:03:26;100702.94;;;12.43;100.00
73516;BME280;61763;51.416;5.442;2022-09-09T00:06:00;100703.69;;;12.45;100.00
73516;BME280;61763;51.416;5.442;2022-09-09T00:08:41;100704.84;;;12.41;100.00
73516;BME280;61763;51.416;5.442;2022-09-09T00:11:13;100698.19;;;12.47;100.00
73516;BME280;61763;51.416;5.442;2022-09-09T00:13:46;100704.59;;;12.46;100.00
73516;BME280;61763;51.416;5.442;2022-09-09T00:16:23;100697.34;;;12.46;100.00
73516;BME280;61763;51.416;5.442;2022-09-09T00:22:00;100696.00;;;12.53;100.00
73516;BME280;61763;51.416;5.442;2022-09-09T00:27:22;100693.47;;;12.50;100.00
73516;BME280;61763;51.416;5.442;2022-09-09T00:29:53;100686.31;;;12.49;100.00
73516;BME280;61763;51.416;5.442;2022-09-09T00:32:20;100691.72;;;12.49;100.00
73516;BME280;61763;51.416;5.442;2022-09-09T00:34:52;100678.97;;;12.51;100.00
73516;BME280;61763;51.416;5.442;2022-09-09T00:37:20;100677.34;;;12.49;100.00
73516;BME280;61763;51.416;5.442;2022-09-09T00:39:47;100679.63;;;12.40;100.00
73516;BME280;61763;51.416;5.442;2022-09-09T00:52:59;100675.41;;;12.51;100.00
73516;BME280;61763;51.416;5.442;2022-09-09T00:55:52;100671.44;;;12.56;100.00
73516;BME280;61763;51.416;5.442;2022-09-09T00:58:19;100668.41;;;12.47;100.00
73516;BME280;61763;51.416;5.442;2022-09-09T01:01:12;100677.81;;;12.55;100.00
73516;BME280;61763;51.416;5.442;2022-09-09T01:06:34;100671.69;;;12.37;100.00
73516;BME280;61763;51.416;5.442;2022-09-09T01:17:03;100669.00;;;12.37;100.00
73516;BME280;61763;51.416;5.442;2022-09-09T01:22:25;100670.47;;;12.43;100.00
73516;BME280;61763;51.416;5.442;2022-09-09T01:25:06;100674.72;;;12.47;100.00
73516;BME280;61763;51.416;5.442;2022-09-09T01:27:35;100661.38;;;12.44;100.00
73516;BME280;61763;51.416;5.442;2022-09-09T01:30:12;100650.19;;;12.50;100.00
73516;BME280;61763;51.416;5.442;2022-09-09T01:35:11;100654.41;;;12.40;100.00
73516;BME280;61763;51.416;5.442;2022-09-09T01:37:39;100654.50;;;12.38;100.00
73516;BME280;61763;51.416;5.442;2022-09-09T01:40:05;100651.91;;;12.37;100.00
73516;BME280;61763;51.416;5.442;2022-09-09T01:42:31;100652.25;;;12.31;100.00
73516;BME280;61763;51.416;5.442;2022-09-09T01:44:56;100650.44;;;12.31;100.00
73516;BME280;61763;51.416;5.442;2022-09-09T01:47:21;100645.69;;;12.35;100.00
73516;BME280;61763;51.416;5.442;2022-09-09T01:49:47;100646.72;;;12.32;100.00
73516;BME280;61763;51.416;5.442;2022-09-09T01:52:12;100641.50;;;12.29;100.00
73516;BME280;61763;51.416;5.442;2022-09-09T01:54:38;100638.03;;;12.27;100.00
73516;BME280;61763;51.416;5.442;2022-09-09T02:02:35;100632.81;;;12.24;100.00
73516;BME280;61763;51.416;5.442;2022-09-09T02:05:11;100634.91;;;12.19;100.00
73516;BME280;61763;51.416;5.442;2022-09-09T02:07:47;100625.84;;;12.20;100.00
73516;BME280;61763;51.416;5.442;2022-09-09T02:10:23;100622.56;;;12.29;100.00
73516;BME280;61763;51.416;5.442;2022-09-09T02:12:57;100633.81;;;12.37;100.00
73516;BME280;61763;51.416;5.442;2022-09-09T02:15:32;100631.28;;;12.34;100.00
73516;BME280;61763;51.416;5.442;2022-09-09T02:18:01;100635.56;;;12.38;100.00
73516;BME280;61763;51.416;5.442;2022-09-09T02:20:32;100637.56;;;12.35;100.00
73516;BME280;61763;51.416;5.442;2022-09-09T02:22:59;100640.09;;;12.38;100.00
73516;BME280;61763;51.416;5.442;2022-09-09T02:25:28;100634.47;;;12.41;100.00
73516;BME280;61763;51.416;5.442;2022-09-09T02:27:55;100630.25;;;12.51;100.00
73516;BME280;61763;51.416;5.442;2022-09-09T02:30:20;100631.09;;;12.37;100.00
73516;BME280;61763;51.416;5.442;2022-09-09T02:32:48;100631.28;;;12.34;100.00
73516;BME280;61763;51.416;5.442;2022-09-09T02:35:19;100627.88;;;12.31;100.00
73516;BME280;61763;51.416;5.442;2022-09-09T02:37:46;100630.88;;;12.26;100.00
73516;BME280;61763;51.416;5.442;2022-09-09T02:40:13;100627.97;;;12.29;100.00
73516;BME280;61763;51.416;5.442;2022-09-09T02:42:45;100617.06;;;12.31;100.00
73516;BME280;61763;51.416;5.442;2022-09-09T02:45:14;100615.25;;;12.31;100.00
73516;BME280;61763;51.416;5.442;2022-09-09T02:47:44;100628.38;;;12.23;100.00
73516;BME280;61763;51.416;5.442;2022-09-09T02:50:19;100619.97;;;12.13;100.00
73516;BME280;61763;51.416;5.442;2022-09-09T02:57:57;100627.28;;;12.11;100.00
73516;BME280;61763;51.416;5.442;2022-09-09T03:00:28;100629.22;;;12.09;100.00
73516;BME280;61763;51.416;5.442;2022-09-09T03:02:53;100625.00;;;12.19;100.00
73516;BME280;61763;51.416;5.442;2022-09-09T03:05:20;100627.69;;;12.19;100.00
73516;BME280;61763;51.416;5.442;2022-09-09T03:07:45;100632.63;;;12.27;100.00
73516;BME280;61763;51.416;5.442;2022-09-09T03:10:11;100630.03;;;12.25;100.00
73516;BME280;61763;51.416;5.442;2022-09-09T03:12:36;100614.56;;;12.27;100.00
73516;BME280;61763;51.416;5.442;2022-09-09T03:15:02;100627.41;;;12.24;100.00
73516;BME280;61763;51.416;5.442;2022-09-09T03:17:28;100625.56;;;12.24;100.00
73516;BME280;61763;51.416;5.442;2022-09-09T03:19:53;100625.66;;;12.23;100.00
73516;BME280;61763;51.416;5.442;2022-09-09T03:22:20;100628.47;;;12.21;100.00
73516;BME280;61763;51.416;5.442;2022-09-09T03:24:46;100631.16;;;12.21;100.00
73516;BME280;61763;51.416;5.442;2022-09-09T03:27:12;100627.59;;;12.21;100.00
73516;BME280;61763;51.416;5.442;2022-09-09T03:29:39;100636.56;;;12.21;100.00
73516;BME280;61763;51.416;5.442;2022-09-09T03:32:05;100639.78;;;12.28;100.00
73516;BME280;61763;51.416;5.442;2022-09-09T03:34:30;100625.56;;;12.24;100.00
73516;BME280;61763;51.416;5.442;2022-09-09T03:36:56;100637.38;;;12.23;100.00
73516;BME280;61763;51.416;5.442;2022-09-09T03:39:21;100634.16;;;12.17;100.00
73516;BME280;61763;51.416;5.442;2022-09-09T03:41:47;100634.63;;;12.09;100.00
73516;BME280;61763;51.416;5.442;2022-09-09T03:44:13;100635.84;;;12.03;100.00
73516;BME280;61763;51.416;5.442;2022-09-09T03:46:39;100636.44;;;12.08;100.00
73516;BME280;61763;51.416;5.442;2022-09-09T03:49:04;100642.94;;;12.06;100.00
73516;BME280;61763;51.416;5.442;2022-09-09T03:51:30;100634.06;;;12.18;100.00
73516;BME280;61763;51.416;5.442;2022-09-09T03:53:56;100638.03;;;12.27;100.00
73516;BME280;61763;51.416;5.442;2022-09-09T03:56:24;100636.91;;;12.31;100.00
73516;BME280;61763;51.416;5.442;2022-09-09T03:58:49;100637.75;;;12.32;100.00
73516;BME280;61763;51.416;5.442;2022-09-09T04:01:15;100638.47;;;12.35;100.00
73516;BME280;61763;51.416;5.442;2022-09-09T04:03:42;100633.44;;;12.43;100.00
73516;BME280;61763;51.416;5.442;2022-09-09T04:06:10;100635.56;;;12.38;100.00
73516;BME280;61763;51.416;5.442;2022-09-09T04:08:36;100634.13;;;12.47;100.00
73516;BME280;61763;51.416;5.442;2022-09-09T04:11:03;100632.69;;;12.56;100.00
73516;BME280;61763;51.416;5.442;2022-09-09T04:13:36;100626.47;;;12.54;100.00
73516;BME280;61763;51.416;5.442;2022-09-09T04:16:05;100632.38;;;12.46;100.00
73516;BME280;61763;51.416;5.442;2022-09-09T04:18:31;100624.81;;;12.51;100.00
73516;BME280;61763;51.416;5.442;2022-09-09T04:20:58;100616.50;;;12.54;100.00
73516;BME280;61763;51.416;5.442;2022-09-09T04:23:25;100623.56;;;12.57;100.00
73516;BME280;61763;51.416;5.442;2022-09-09T04:25:52;100623.03;;;12.66;100.00
73516;BME280;61763;51.416;5.442;2022-09-09T04:28:19;100617.03;;;12.75;100.00
73516;BME280;61763;51.416;5.442;2022-09-09T04:30:45;100617.97;;;12.74;100.00
73516;BME280;61763;51.416;5.442;2022-09-09T04:33:11;100611.88;;;13.00;100.00
73516;BME280;61763;51.416;5.442;2022-09-09T04:35:37;100612.66;;;12.87;100.00
73516;BME280;61763;51.416;5.442;2022-09-09T04:38:04;100613.25;;;12.78;100.00
73516;BME280;61763;51.416;5.442;2022-09-09T04:40:30;100605.78;;;12.67;100.00
73516;BME280;61763;51.416;5.442;2022-09-09T04:43:00;100604.63;;;12.57;100.00
73516;BME280;61763;51.416;5.442;2022-09-09T04:45:25;100611.19;;;12.53;100.00
73516;BME280;61763;51.416;5.442;2022-09-09T04:47:51;100613.91;;;12.67;100.00
73516;BME280;61763;51.416;5.442;2022-09-09T04:50:17;100605.69;;;12.69;100.00
73516;BME280;61763;51.416;5.442;2022-09-09T04:52:44;100608.31;;;12.70;100.00
73516;BME280;61763;51.416;5.442;2022-09-09T04:55:09;100608.69;;;12.78;100.00
73516;BME280;61763;51.416;5.442;2022-09-09T04:57:35;100602.41;;;12.92;100.00
73516;BME280;61763;51.416;5.442;2022-09-09T05:00:00;100605.41;;;12.88;100.00
73516;BME280;61763;51.416;5.442;2022-09-09T05:02:27;100597.75;;;13.09;100.00
73516;BME280;61763;51.416;5.442;2022-09-09T05:04:53;100603.75;;;13.00;100.00
73516;BME280;61763;51.416;5.442;2022-09-09T05:07:19;100606.84;;;13.08;100.00
73516;BME280;61763;51.416;5.442;2022-09-09T05:09:44;100606.44;;;13.00;100.00
73516;BME280;61763;51.416;5.442;2022-09-09T05:12:10;100595.63;;;13.00;100.00
73516;BME280;61763;51.416;5.442;2022-09-09T05:14:36;100591.84;;;13.02;100.00
73516;BME280;61763;51.416;5.442;2022-09-09T05:17:03;100592.16;;;12.97;100.00
73516;BME280;61763;51.416;5.442;2022-09-09T05:19:28;100598.31;;;13.00;100.00
73516;BME280;61763;51.416;5.442;2022-09-09T05:21:55;100597.56;;;13.12;100.00
73516;BME280;61763;51.416;5.442;2022-09-09T05:24:21;100597.25;;;13.17;100.00
73516;BME280;61763;51.416;5.442;2022-09-09T05:26:48;100594.63;;;13.15;100.00
73516;BME280;61763;51.416;5.442;2022-09-09T05:29:13;100596.31;;;13.03;100.00
73516;BME280;61763;51.416;5.442;2022-09-09T05:31:39;100600.47;;;13.09;100.00
73516;BME280;61763;51.416;5.442;2022-09-09T05:34:04;100598.41;;;13.12;100.00
73516;BME280;61763;51.416;5.442;2022-09-09T05:36:29;100606.53;;;13.12;100.00
73516;BME280;61763;51.416;5.442;2022-09-09T05:38:55;100597.56;;;13.12;100.00
73516;BME280;61763;51.416;5.442;2022-09-09T05:41:20;100608.28;;;13.13;100.00
73516;BME280;61763;51.416;5.442;2022-09-09T05:43:48;100597.84;;;13.07;100.00
73516;BME280;61763;51.416;5.442;2022-09-09T05:46:16;100610.22;;;13.11;100.00
73516;BME280;61763;51.416;5.442;2022-09-09T05:48:46;100602.91;;;13.26;100.00
73516;BME280;61763;51.416;5.442;2022-09-09T05:51:14;100619.84;;;13.30;100.00
73516;BME280;61763;51.416;5.442;2022-09-09T05:53:44;100615.09;;;13.33;100.00
73516;BME280;61763;51.416;5.442;2022-09-09T05:56:16;100617.16;;;13.44;100.00
73516;BME280;61763;51.416;5.442;2022-09-09T05:58:43;100616.81;;;13.63;100.00
73516;BME280;61763;51.416;5.442;2022-09-09T06:01:27;100614.53;;;13.70;100.00
73516;BME280;61763;51.416;5.442;2022-09-09T06:03:54;100622.03;;;13.79;100.00
73516;BME280;61763;51.416;5.442;2022-09-09T06:06:22;100611.53;;;13.88;100.00
73516;BME280;61763;51.416;5.442;2022-09-09T06:08:50;100612.97;;;13.93;100.00
73516;BME280;61763;51.416;5.442;2022-09-09T06:11:17;100616.03;;;14.01;100.00
73516;BME280;61763;51.416;5.442;2022-09-09T06:13:43;100610.63;;;14.14;100.00
73516;BME280;61763;51.416;5.442;2022-09-09T06:16:10;100606.88;;;14.30;100.00
73516;BME280;61763;51.416;5.442;2022-09-09T06:18:41;100610.66;;;14.53;100.00
73516;BME280;61763;51.416;5.442;2022-09-09T06:21:11;100607.75;;;14.69;100.00
73516;BME280;61763;51.416;5.442;2022-09-09T06:23:39;100599.94;;;14.90;100.00
73516;BME280;61763;51.416;5.442;2022-09-09T06:26:09;100612.94;;;14.98;100.00
73516;BME280;61763;51.416;5.442;2022-09-09T06:28:36;100614.66;;;15.12;100.00
73516;BME280;61763;51.416;5.442;2022-09-09T06:31:07;100606.84;;;15.07;99.78
73516;BME280;61763;51.416;5.442;2022-09-09T06:33:41;100601.22;;;14.97;98.44
73516;BME280;61763;51.416;5.442;2022-09-09T06:36:15;100600.03;;;14.76;99.90
73516;BME280;61763;51.416;5.442;2022-09-09T06:38:41;100598.84;;;14.67;100.00
73516;BME280;61763;51.416;5.442;2022-09-09T06:41:08;100605.47;;;14.76;100.00
73516;BME280;61763;51.416;5.442;2022-09-09T06:43:34;100601.13;;;14.73;100.00
73516;BME280;61763;51.416;5.442;2022-09-09T06:46:23;100608.84;;;14.79;100.00
73516;BME280;61763;51.416;5.442;2022-09-09T06:48:53;100600.91;;;14.89;99.90
73516;BME280;61763;51.416;5.442;2022-09-09T06:51:22;100600.00;;;15.01;98.12
73516;BME280;61763;51.416;5.442;2022-09-09T06:53:50;100601.06;;;15.12;97.45
73516;BME280;61763;51.416;5.442;2022-09-09T06:56:20;100597.03;;;15.04;99.00
73516;BME280;61763;51.416;5.442;2022-09-09T06:58:48;100597.25;;;15.14;97.54
73516;BME280;61763;51.416;5.442;2022-09-09T07:01:16;100592.91;;;15.12;97.93
73516;BME280;61763;51.416;5.442;2022-09-09T07:03:46;100600.28;;;15.22;96.52
73516;BME280;61763;51.416;5.442;2022-09-09T07:06:15;100597.56;;;15.22;97.60
73516;BME280;61763;51.416;5.442;2022-09-09T07:08:42;100600.66;;;15.42;94.99
73516;BME280;61763;51.416;5.442;2022-09-09T07:11:08;100613.31;;;15.54;95.25
73516;BME280;61763;51.416;5.442;2022-09-09T07:13:34;100606.97;;;15.67;93.26
73516;BME280;61763;51.416;5.442;2022-09-09T07:16:15;100611.09;;;15.97;91.71
73516;BME280;61763;51.416;5.442;2022-09-09T07:18:41;100606.72;;;16.18;91.67
73516;BME280;61763;51.416;5.442;2022-09-09T07:21:09;100599.47;;;16.53;88.46
73516;BME280;61763;51.416;5.442;2022-09-09T07:23:34;100602.09;;;16.77;86.11
73516;BME280;61763;51.416;5.442;2022-09-09T07:26:08;100592.38;;;16.50;86.02
73516;BME280;61763;51.416;5.442;2022-09-09T07:28:33;100595.22;;;16.26;88.51
73516;BME280;61763;51.416;5.442;2022-09-09T07:31:00;100600.03;;;16.34;87.91
73516;BME280;61763;51.416;5.442;2022-09-09T07:33:30;100596.25;;;16.48;87.43
73516;BME280;61763;51.416;5.442;2022-09-09T07:36:10;100606.31;;;16.70;87.11
73516;BME280;61763;51.416;5.442;2022-09-09T07:38:42;100602.09;;;16.66;85.19
73516;BME280;61763;51.416;5.442;2022-09-09T07:41:11;100598.47;;;16.54;85.47
73516;BME280;61763;51.416;5.442;2022-09-09T07:43:45;100600.94;;;16.45;86.71
73516;BME280;61763;51.416;5.442;2022-09-09T07:46:13;100598.22;;;16.57;85.25
73516;BME280;61763;51.416;5.442;2022-09-09T07:48:50;100604.06;;;16.52;85.67
73516;BME280;61763;51.416;5.442;2022-09-09T07:51:17;100604.41;;;16.59;85.45
73516;BME280;61763;51.416;5.442;2022-09-09T07:53:44;100599.59;;;16.74;85.05
73516;BME280;61763;51.416;5.442;2022-09-09T07:56:15;100592.66;;;16.81;83.60
73516;BME280;61763;51.416;5.442;2022-09-09T07:58:42;100611.50;;;16.84;82.25
73516;BME280;61763;51.416;5.442;2022-09-09T08:01:14;100602.72;;;16.80;82.83
73516;BME280;61763;51.416;5.442;2022-09-09T08:03:40;100602.59;;;16.82;83.14
73516;BME280;61763;51.416;5.442;2022-09-09T08:06:07;100609.31;;;16.89;83.10
73516;BME280;61763;51.416;5.442;2022-09-09T08:08:34;100615.84;;;16.87;82.75
73516;BME280;61763;51.416;5.442;2022-09-09T08:11:15;100606.19;;;17.16;81.35
73516;BME280;61763;51.416;5.442;2022-09-09T08:13:42;100596.59;;;17.45;78.89
73516;BME280;61763;51.416;5.442;2022-09-09T08:16:18;100605.19;;;17.73;79.35
73516;BME280;61763;51.416;5.442;2022-09-09T08:18:46;100601.41;;;17.96;77.22
73516;BME280;61763;51.416;5.442;2022-09-09T08:21:15;100600.66;;;17.94;77.01
73516;BME280;61763;51.416;5.442;2022-09-09T08:23:43;100601.19;;;17.77;77.70
73516;BME280;61763;51.416;5.442;2022-09-09T08:26:18;100605.41;;;17.92;76.99
73516;BME280;61763;51.416;5.442;2022-09-09T08:28:46;100604.16;;;17.96;77.32
73516;BME280;61763;51.416;5.442;2022-09-09T08:31:14;100606.00;;;17.96;77.48
73516;BME280;61763;51.416;5.442;2022-09-09T08:33:41;100596.22;;;17.82;76.21
73516;BME280;61763;51.416;5.442;2022-09-09T08:36:10;100606.25;;;17.81;75.61
73516;BME280;61763;51.416;5.442;2022-09-09T08:38:37;100605.41;;;17.81;75.33
73516;BME280;61763;51.416;5.442;2022-09-09T08:43:41;100614.41;;;17.49;77.34
73516;BME280;61763;51.416;5.442;2022-09-09T08:49:21;100611.38;;;17.75;76.34
73516;BME280;61763;51.416;5.442;2022-09-09T08:51:51;100616.41;;;17.58;77.40
73516;BME280;61763;51.416;5.442;2022-09-09T08:54:18;100608.69;;;17.63;76.45
73516;BME280;61763;51.416;5.442;2022-09-09T08:56:44;100612.63;;;17.71;75.87
73516;BME280;61763;51.416;5.442;2022-09-09T08:59:11;100623.97;;;17.55;76.11
73516;BME280;61763;51.416;5.442;2022-09-09T09:02:17;100628.72;;;17.41;77.57
73516;BME280;61763;51.416;5.442;2022-09-09T09:10:42;100637.16;;;17.38;77.67
73516;BME280;61763;51.416;5.442;2022-09-09T09:13:19;100637.78;;;17.30;78.33
73516;BME280;61763;51.416;5.442;2022-09-09T09:15:55;100641.13;;;17.34;77.31
73516;BME280;61763;51.416;5.442;2022-09-09T09:18:24;100647.34;;;17.25;78.01
73516;BME280;61763;51.416;5.442;2022-09-09T09:23:39;100648.19;;;17.25;80.60
73516;BME280;61763;51.416;5.442;2022-09-09T09:26:09;100649.19;;;17.24;80.80
73516;BME280;61763;51.416;5.442;2022-09-09T09:28:36;100638.25;;;17.47;79.05
73516;BME280;61763;51.416;5.442;2022-09-09T09:35:59;100636.13;;;18.06;75.29
73516;BME280;61763;51.416;5.442;2022-09-09T09:38:26;100639.75;;;18.27;73.77
73516;BME280;61763;51.416;5.442;2022-09-09T09:40:58;100633.66;;;18.66;73.09
73516;BME280;61763;51.416;5.442;2022-09-09T09:43:32;100623.19;;;18.92;70.26
73516;BME280;61763;51.416;5.442;2022-09-09T09:45:58;100633.50;;;19.10;70.03
73516;BME280;61763;51.416;5.442;2022-09-09T09:48:25;100631.69;;;18.99;71.06
73516;BME280;61763;51.416;5.442;2022-09-09T09:50:57;100636.63;;;18.32;74.93
73516;BME280;61763;51.416;5.442;2022-09-09T09:53:32;100642.63;;;17.82;77.57
73516;BME280;61763;51.416;5.442;2022-09-09T09:56:04;100644.28;;;17.73;79.34
73516;BME280;61763;51.416;5.442;2022-09-09T09:58:32;100639.66;;;17.30;79.60
73516;BME280;61763;51.416;5.442;2022-09-09T10:00:59;100640.25;;;17.22;80.31
73516;BME280;61763;51.416;5.442;2022-09-09T10:03:28;100647.72;;;17.20;80.69
73516;BME280;61763;51.416;5.442;2022-09-09T10:05:54;100649.19;;;17.13;81.59
73516;BME280;61763;51.416;5.442;2022-09-09T10:08:22;100647.44;;;17.12;82.61
73516;BME280;61763;51.416;5.442;2022-09-09T10:19:32;100660.41;;;16.63;86.80
73516;BME280;61763;51.416;5.442;2022-09-09T10:24:52;100657.91;;;16.13;90.58
73516;BME280;61763;51.416;5.442;2022-09-09T10:27:36;100672.59;;;16.10;91.70
73516;BME280;61763;51.416;5.442;2022-09-09T10:30:18;100668.94;;;15.87;92.71
73516;BME280;61763;51.416;5.442;2022-09-09T10:38:40;100677.34;;;15.84;93.87
73516;BME280;61763;51.416;5.442;2022-09-09T10:53:35;100666.56;;;17.34;87.58
73516;BME280;61763;51.416;5.442;2022-09-09T10:56:03;100667.47;;;17.56;87.29
73516;BME280;61763;51.416;5.442;2022-09-09T11:01:25;100657.22;;;17.48;87.91
73516;BME280;61763;51.416;5.442;2022-09-09T11:04:22;100657.78;;;17.75;86.50
73516;BME280;61763;51.416;5.442;2022-09-09T11:07:01;100654.88;;;17.99;87.44
73516;BME280;61763;51.416;5.442;2022-09-09T11:09:47;100668.06;;;17.94;85.37
73516;BME280;61763;51.416;5.442;2022-09-09T11:12:18;100653.03;;;18.20;85.41
73516;BME280;61763;51.416;5.442;2022-09-09T11:17:29;100652.28;;;18.51;84.41
73516;BME280;61763;51.416;5.442;2022-09-09T11:19:59;100660.25;;;18.43;83.41
73516;BME280;61763;51.416;5.442;2022-09-09T11:22:30;100658.13;;;18.88;84.92
73516;BME280;61763;51.416;5.442;2022-09-09T11:28:25;100648.66;;;18.50;80.12
73516;BME280;61763;51.416;5.442;2022-09-09T11:38:56;100654.22;;;18.39;81.93
73516;BME280;61763;51.416;5.442;2022-09-09T11:41:36;100658.38;;;17.90;82.60
73516;BME280;61763;51.416;5.442;2022-09-09T11:44:18;100659.00;;;17.93;82.66
73516;BME280;61763;51.416;5.442;2022-09-09T11:46:50;100655.34;;;17.60;84.03
73516;BME280;61763;51.416;5.442;2022-09-09T11:49:49;100657.00;;;17.40;85.68
73516;BME280;61763;51.416;5.442;2022-09-09T11:54:48;100652.59;;;17.60;85.51
73516;BME280;61763;51.416;5.442;2022-09-09T11:57:32;100651.41;;;17.85;84.27
73516;BME280;61763;51.416;5.442;2022-09-09T11:59:59;100656.84;;;18.08;83.07
73516;BME280;61763;51.416;5.442;2022-09-09T12:02:27;100645.72;;;18.21;82.39
73516;BME280;61763;51.416;5.442;2022-09-09T12:05:08;100642.00;;;18.43;82.04
73516;BME280;61763;51.416;5.442;2022-09-09T12:07:38;100640.13;;;18.86;78.06
73516;BME280;61763;51.416;5.442;2022-09-09T12:10:27;100645.06;;;18.92;77.89
73516;BME280;61763;51.416;5.442;2022-09-09T12:12:54;100636.16;;;19.00;76.73
73516;BME280;61763;51.416;5.442;2022-09-09T12:15:25;100645.50;;;18.97;77.01
73516;BME280;61763;51.416;5.442;2022-09-09T12:17:57;100641.91;;;19.28;77.17
73516;BME280;61763;51.416;5.442;2022-09-09T12:20:34;100632.44;;;19.01;76.75
73516;BME280;61763;51.416;5.442;2022-09-09T12:23:25;100627.13;;;19.09;77.40
73516;BME280;61763;51.416;5.442;2022-09-09T12:29:08;100630.16;;;19.06;74.51
73516;BME280;61763;51.416;5.442;2022-09-09T12:34:16;100631.38;;;18.71;76.03
73516;BME280;61763;51.416;5.442;2022-09-09T12:36:44;100626.66;;;18.52;78.39
73516;BME280;61763;51.416;5.442;2022-09-09T12:39:43;100623.06;;;18.51;78.14
73516;BME280;61763;51.416;5.442;2022-09-09T12:42:19;100629.00;;;18.35;77.89
73516;BME280;61763;51.416;5.442;2022-09-09T12:45:19;100617.50;;;18.32;78.53
73516;BME280;61763;51.416;5.442;2022-09-09T12:47:50;100631.84;;;18.55;76.89
73516;BME280;61763;51.416;5.442;2022-09-09T12:50:25;100615.31;;;18.78;76.94
73516;BME280;61763;51.416;5.442;2022-09-09T12:52:53;100615.75;;;18.83;76.30
73516;BME280;61763;51.416;5.442;2022-09-09T12:55:23;100614.78;;;19.15;75.17
73516;BME280;61763;51.416;5.442;2022-09-09T12:57:51;100605.22;;;18.99;74.39
73516;BME280;61763;51.416;5.442;2022-09-09T13:00:18;100609.16;;;19.16;74.93
73516;BME280;61763;51.416;5.442;2022-09-09T13:02:48;100611.53;;;19.31;73.04
73516;BME280;61763;51.416;5.442;2022-09-09T13:05:21;100613.44;;;19.50;71.79
73516;BME280;61763;51.416;5.442;2022-09-09T13:07:47;100614.22;;;19.71;69.90
73516;BME280;61763;51.416;5.442;2022-09-09T13:10:15;100605.31;;;19.79;69.75
73516;BME280;61763;51.416;5.442;2022-09-09T13:12:45;100602.28;;;19.82;67.91
73516;BME280;61763;51.416;5.442;2022-09-09T13:15:20;100597.38;;;19.95;68.91
73516;BME280;61763;51.416;5.442;2022-09-09T13:17:51;100605.28;;;20.18;67.75
73516;BME280;61763;51.416;5.442;2022-09-09T13:20:19;100601.84;;;20.26;68.21
73516;BME280;61763;51.416;5.442;2022-09-09T13:22:47;100604.88;;;20.13;67.40
73516;BME280;61763;51.416;5.442;2022-09-09T13:25:20;100603.88;;;19.85;68.95
73516;BME280;61763;51.416;5.442;2022-09-09T13:28:01;100601.19;;;19.44;71.11
73516;BME280;61763;51.416;5.442;2022-09-09T13:30:29;100604.81;;;19.04;73.56
73516;BME280;61763;51.416;5.442;2022-09-09T13:35:57;100606.97;;;18.27;79.18
73516;BME280;61763;51.416;5.442;2022-09-09T13:38:24;100604.56;;;18.13;78.75
73516;BME280;61763;51.416;5.442;2022-09-09T13:41:10;100599.28;;;18.21;80.77
73516;BME280;61763;51.416;5.442;2022-09-09T13:43:43;100599.47;;;18.50;78.61
73516;BME280;61763;51.416;5.442;2022-09-09T13:51:50;100599.69;;;19.20;72.04
73516;BME280;61763;51.416;5.442;2022-09-09T13:54:18;100598.28;;;19.36;70.85
73516;BME280;61763;51.416;5.442;2022-09-09T13:56:44;100596.69;;;19.43;72.94
73516;BME280;61763;51.416;5.442;2022-09-09T13:59:17;100590.59;;;19.80;70.25
73516;BME280;61763;51.416;5.442;2022-09-09T14:01:46;100591.44;;;19.61;69.61
73516;BME280;61763;51.416;5.442;2022-09-09T14:04:12;100588.25;;;19.56;69.22
73516;BME280;61763;51.416;5.442;2022-09-09T14:06:38;100599.72;;;19.30;70.14
73516;BME280;61763;51.416;5.442;2022-09-09T14:09:12;100600.38;;;19.13;70.73
73516;BME280;61763;51.416;5.442;2022-09-09T14:11:38;100594.38;;;18.88;71.68
73516;BME280;61763;51.416;5.442;2022-09-09T14:14:03;100597.72;;;18.70;72.80
73516;BME280;61763;51.416;5.442;2022-09-09T14:16:29;100606.88;;;18.60;73.51
73516;BME280;61763;51.416;5.442;2022-09-09T14:18:55;100589.59;;;18.80;73.37
73516;BME280;61763;51.416;5.442;2022-09-09T14:21:24;100597.50;;;18.83;72.44
73516;BME280;61763;51.416;5.442;2022-09-09T14:23:50;100592.31;;;19.11;71.87
73516;BME280;61763;51.416;5.442;2022-09-09T14:26:15;100604.09;;;19.52;69.30
73516;BME280;61763;51.416;5.442;2022-09-09T14:28:41;100590.75;;;19.88;68.49
73516;BME280;61763;51.416;5.442;2022-09-09T14:31:07;100585.25;;;20.08;68.25
73516;BME280;61763;51.416;5.442;2022-09-09T14:33:32;100590.28;;;20.12;67.53
73516;BME280;61763;51.416;5.442;2022-09-09T14:36:01;100580.47;;;20.29;67.60
73516;BME280;61763;51.416;5.442;2022-09-09T14:38:32;100578.88;;;20.27;67.40
73516;BME280;61763;51.416;5.442;2022-09-09T14:40:59;100585.41;;;20.26;66.92
73516;BME280;61763;51.416;5.442;2022-09-09T14:43:24;100585.41;;;19.87;66.38
73516;BME280;61763;51.416;5.442;2022-09-09T14:45:51;100580.50;;;19.81;67.97
73516;BME280;61763;51.416;5.442;2022-09-09T14:48:17;100586.69;;;19.73;67.98
73516;BME280;61763;51.416;5.442;2022-09-09T14:50:43;100584.63;;;19.65;67.45
73516;BME280;61763;51.416;5.442;2022-09-09T14:53:09;100579.44;;;19.62;67.30
73516;BME280;61763;51.416;5.442;2022-09-09T14:55:35;100588.22;;;19.46;67.20
73516;BME280;61763;51.416;5.442;2022-09-09T14:58:00;100584.75;;;19.44;68.02
73516;BME280;61763;51.416;5.442;2022-09-09T15:00:26;100590.78;;;19.28;68.91
73516;BME280;61763;51.416;5.442;2022-09-09T15:02:52;100590.03;;;19.16;70.84
73516;BME280;61763;51.416;5.442;2022-09-09T15:05:18;100581.53;;;19.19;69.82